Time;durP1;ratioP1;P1;durP2;ratioP2;P2;SDS_P1;SDS_P2;PMS_P1;PMS_P2;Temp;Humidity;BMP_temperature;BMP_pressure;BME280_temperature;BME280_humidity;BME280_pressure;Samples;Min_cycle;Max_cycle;Signal;HPM_P1;HPM_P2
2022/10/13 00:01:33;;;;;;;;;37.75;31.00;;;;;;;;5062131;28;62716;-78
2022/10/13 00:03:59;;;;;;;;;34.50;28.75;;;;;;;;5047044;28;61801;-78
2022/10/13 00:06:24;;;;;;;;;37.50;29.00;;;;;;;;5041509;28;61786;-78
2022/10/13 00:08:50;;;;;;;;;42.75;30.00;;;;;;;;5042149;28;61841;-78
2022/10/13 00:11:17;;;;;;;;;38.25;30.75;;;;;;;;5041793;28;61897;-78
2022/10/13 00:13:43;;;;;;;;;36.50;25.25;;;;;;;;5042021;28;61967;-78
2022/10/13 00:16:09;;;;;;;;;36.50;30.75;;;;;;;;5048963;28;62034;-78
2022/10/13 00:18:35;;;;;;;;;32.75;30.75;;;;;;;;5061751;28;61711;-78
2022/10/13 00:21:00;;;;;;;;;34.75;27.00;;;;;;;;5030287;28;62105;-78
2022/10/13 00:23:25;;;;;;;;;28.75;24.75;;;;;;;;5023868;28;61805;-78
2022/10/13 00:25:51;;;;;;;;;31.00;28.50;;;;;;;;5041138;28;61858;-79
2022/10/13 00:28:17;;;;;;;;;26.50;25.00;;;;;;;;5043762;28;62189;-79
2022/10/13 00:30:43;;;;;;;;;27.25;24.00;;;;;;;;5045502;28;62103;-78
2022/10/13 00:33:09;;;;;;;;;32.50;24.75;;;;;;;;5045460;28;61901;-79
2022/10/13 00:35:39;;;;;;;;;31.50;24.50;;;;;;;;5043861;28;62660;-78
2022/10/13 00:38:04;;;;;;;;;29.00;26.50;;;;;;;;5045264;28;61771;-78
2022/10/13 00:40:29;;;;;;;;;30.75;24.25;;;;;;;;5045107;28;62075;-79
2022/10/13 00:42:54;;;;;;;;;35.00;27.75;;;;;;;;5045548;28;61850;-79
2022/10/13 00:45:28;;;;;;;;;28.25;26.25;;;;;;;;5044847;28;61766;-78
2022/10/13 00:47:57;;;;;;;;;27.25;24.75;;;;;;;;5045077;28;61835;-78
2022/10/13 00:50:25;;;;;;;;;36.25;30.00;;;;;;;;5027027;28;61942;-79
2022/10/13 00:52:51;;;;;;;;;27.50;25.00;;;;;;;;5026963;28;61837;-78
2022/10/13 00:55:20;;;;;;;;;23.25;20.00;;;;;;;;5044278;28;61948;-78
2022/10/13 00:57:47;;;;;;;;;25.75;21.25;;;;;;;;5027023;28;61985;-79
2022/10/13 01:00:12;;;;;;;;;30.50;25.75;;;;;;;;5045253;28;61863;-78
2022/10/13 01:02:37;;;;;;;;;31.25;24.75;;;;;;;;5044973;28;62181;-78
2022/10/13 01:05:04;;;;;;;;;30.00;27.00;;;;;;;;5044365;28;62646;-78
2022/10/13 01:07:30;;;;;;;;;28.75;22.50;;;;;;;;5044802;28;61830;-78
2022/10/13 01:09:55;;;;;;;;;25.00;22.50;;;;;;;;5027048;28;61851;-79
2022/10/13 01:12:21;;;;;;;;;24.75;22.50;;;;;;;;5044838;28;61752;-78
2022/10/13 01:15:06;;;;;;;;;25.00;22.00;;;;;;;;5026098;28;63631;-78
2022/10/13 01:17:47;;;;;;;;;25.00;17.50;;;;;;;;5045004;28;61806;-79
2022/10/13 01:20:29;;;;;;;;;28.00;23.00;;;;;;;;5064527;28;61897;-78
2022/10/13 01:23:13;;;;;;;;;20.50;13.50;;;;;;;;5046836;28;62311;-79
2022/10/13 01:26:14;;;;;;;;;29.25;24.25;;;;;;;;5063906;28;61894;-79
2022/10/13 01:28:39;;;;;;;;;30.75;22.50;;;;;;;;5002221;28;61937;-79
2022/10/13 01:31:10;;;;;;;;;29.50;23.50;;;;;;;;5002322;28;62148;-79
2022/10/13 01:33:42;;;;;;;;;31.50;24.50;;;;;;;;5002592;28;61870;-79
2022/10/13 01:36:16;;;;;;;;;26.25;24.25;;;;;;;;5001504;28;61923;-78
2022/10/13 01:39:00;;;;;;;;;28.50;25.00;;;;;;;;4984479;28;61894;-79
2022/10/13 01:41:31;;;;;;;;;29.50;22.25;;;;;;;;5002453;28;61812;-79
2022/10/13 01:44:05;;;;;;;;;36.00;26.75;;;;;;;;5002468;28;62185;-79
2022/10/13 01:46:35;;;;;;;;;28.50;24.25;;;;;;;;5001779;28;62939;-78
2022/10/13 01:49:02;;;;;;;;;30.00;23.75;;;;;;;;5001544;28;61935;-78
2022/10/13 01:51:28;;;;;;;;;20.50;19.00;;;;;;;;4985715;28;61946;-79
2022/10/13 01:53:54;;;;;;;;;32.25;24.25;;;;;;;;5000334;28;62004;-78
2022/10/13 01:56:19;;;;;;;;;23.00;16.75;;;;;;;;4981735;28;64944;-78
2022/10/13 01:58:46;;;;;;;;;29.00;23.50;;;;;;;;4982448;28;62007;-79
2022/10/13 02:01:31;;;;;;;;;21.75;18.50;;;;;;;;4982567;28;62177;-78
2022/10/13 02:04:20;;;;;;;;;21.50;17.00;;;;;;;;5043750;28;61840;-78
2022/10/13 02:06:45;;;;;;;;;11.00;10.25;;;;;;;;5036378;28;64816;-78
2022/10/13 02:09:18;;;;;;;;;14.50;9.00;;;;;;;;5044231;28;61877;-78
2022/10/13 02:11:48;;;;;;;;;12.75;11.00;;;;;;;;5044116;28;61982;-79
2022/10/13 02:14:25;;;;;;;;;11.00;9.50;;;;;;;;5044282;28;61888;-78
2022/10/13 02:16:52;;;;;;;;;11.25;9.75;;;;;;;;5043354;28;62542;-78
2022/10/13 02:19:18;;;;;;;;;12.75;9.00;;;;;;;;5043593;28;61949;-78
2022/10/13 02:21:44;;;;;;;;;9.25;8.75;;;;;;;;5044111;28;61985;-79
2022/10/13 02:24:09;;;;;;;;;7.00;7.00;;;;;;;;5042724;28;61810;-78
2022/10/13 02:26:35;;;;;;;;;9.75;7.75;;;;;;;;5043288;28;62690;-78
2022/10/13 02:29:06;;;;;;;;;8.50;8.50;;;;;;;;5043686;28;62194;-79
2022/10/13 02:31:31;;;;;;;;;11.25;9.00;;;;;;;;5043832;28;61853;-79
2022/10/13 02:33:57;;;;;;;;;7.75;7.00;;;;;;;;5043728;28;61681;-79
2022/10/13 02:36:22;;;;;;;;;6.25;6.00;;;;;;;;5043120;28;62558;-79
2022/10/13 02:38:47;;;;;;;;;6.00;6.00;;;;;;;;5042551;28;61974;-78
2022/10/13 02:41:13;;;;;;;;;7.25;5.75;;;;;;;;5043532;28;62062;-79
2022/10/13 02:43:38;;;;;;;;;8.50;6.75;;;;;;;;5042474;28;61896;-79
2022/10/13 02:46:03;;;;;;;;;7.25;5.00;;;;;;;;5041704;28;63540;-79
2022/10/13 02:48:30;;;;;;;;;10.75;6.50;;;;;;;;5043178;28;62096;-78
2022/10/13 02:50:55;;;;;;;;;8.75;7.00;;;;;;;;5041732;28;61957;-78
2022/10/13 02:53:21;;;;;;;;;9.25;9.25;;;;;;;;5042195;28;62333;-78
2022/10/13 02:55:47;;;;;;;;;6.50;4.25;;;;;;;;5042726;28;61916;-79
2022/10/13 02:58:12;;;;;;;;;7.00;6.00;;;;;;;;5043299;28;61816;-78
2022/10/13 03:00:38;;;;;;;;;7.00;7.00;;;;;;;;5043480;28;61982;-78
2022/10/13 03:03:04;;;;;;;;;11.75;7.00;;;;;;;;5042913;28;61744;-78
2022/10/13 03:05:29;;;;;;;;;8.25;8.25;;;;;;;;5042902;28;61706;-79
2022/10/13 03:07:54;;;;;;;;;7.50;7.50;;;;;;;;5043431;28;61769;-78
2022/10/13 03:10:19;;;;;;;;;8.25;7.25;;;;;;;;5041710;28;61951;-79
2022/10/13 03:12:45;;;;;;;;;6.50;5.00;;;;;;;;5043619;28;61914;-79
2022/10/13 03:15:10;;;;;;;;;16.50;10.00;;;;;;;;5042374;28;61922;-79
2022/10/13 03:17:35;;;;;;;;;8.50;7.00;;;;;;;;5042831;28;61891;-78
2022/10/13 03:20:00;;;;;;;;;5.00;5.00;;;;;;;;5043084;28;61735;-78
2022/10/13 03:22:26;;;;;;;;;10.25;7.75;;;;;;;;5041842;28;61771;-79
2022/10/13 03:24:51;;;;;;;;;5.50;5.50;;;;;;;;5041156;28;63958;-78
2022/10/13 03:27:16;;;;;;;;;9.00;5.50;;;;;;;;5042802;28;62000;-78
2022/10/13 03:29:42;;;;;;;;;9.25;5.75;;;;;;;;5041725;28;62203;-79
2022/10/13 03:32:07;;;;;;;;;7.25;7.25;;;;;;;;5041594;28;61901;-78
2022/10/13 03:34:32;;;;;;;;;13.00;8.00;;;;;;;;5041085;28;63731;-79
2022/10/13 03:36:57;;;;;;;;;12.50;9.50;;;;;;;;5041178;28;61885;-79
2022/10/13 03:39:23;;;;;;;;;10.00;5.25;;;;;;;;5041235;28;62139;-79
2022/10/13 03:41:48;;;;;;;;;6.00;5.50;;;;;;;;5041407;28;62084;-78
2022/10/13 03:44:14;;;;;;;;;7.50;6.50;;;;;;;;5042150;28;62392;-78
2022/10/13 03:46:39;;;;;;;;;7.25;7.25;;;;;;;;5042556;28;61941;-78
2022/10/13 03:49:04;;;;;;;;;10.00;7.75;;;;;;;;5041105;28;61978;-79
2022/10/13 03:51:30;;;;;;;;;11.50;9.00;;;;;;;;5042507;28;61899;-78
2022/10/13 03:53:55;;;;;;;;;11.75;7.50;;;;;;;;5042029;28;62227;-78
2022/10/13 03:56:22;;;;;;;;;8.75;8.75;;;;;;;;5042189;28;62354;-79
2022/10/13 03:58:52;;;;;;;;;13.00;6.75;;;;;;;;5042785;28;61850;-79
2022/10/13 04:01:17;;;;;;;;;9.25;7.75;;;;;;;;5040863;28;62253;-78
2022/10/13 04:03:43;;;;;;;;;6.00;6.00;;;;;;;;5039592;28;63701;-78
2022/10/13 04:06:08;;;;;;;;;7.75;7.50;;;;;;;;5042660;28;61787;-78
2022/10/13 04:08:33;;;;;;;;;9.00;7.00;;;;;;;;5040773;28;61775;-79
2022/10/13 04:10:59;;;;;;;;;10.50;6.50;;;;;;;;5042489;28;61927;-78
2022/10/13 04:13:25;;;;;;;;;8.75;8.25;;;;;;;;5040177;28;64130;-78
2022/10/13 04:15:50;;;;;;;;;7.75;6.00;;;;;;;;5042000;28;61824;-79
2022/10/13 04:18:15;;;;;;;;;11.25;10.00;;;;;;;;5041999;28;62328;-78
2022/10/13 04:20:41;;;;;;;;;7.50;4.75;;;;;;;;5041123;28;62203;-78
2022/10/13 04:23:06;;;;;;;;;5.75;4.50;;;;;;;;5041505;28;61962;-78
2022/10/13 04:25:35;;;;;;;;;8.25;6.00;;;;;;;;5041576;28;61716;-78
2022/10/13 04:28:01;;;;;;;;;10.50;8.00;;;;;;;;5042168;28;61692;-78
2022/10/13 04:30:26;;;;;;;;;12.25;6.00;;;;;;;;5040511;28;61930;-79
2022/10/13 04:32:51;;;;;;;;;9.75;8.00;;;;;;;;5040136;28;63709;-78
2022/10/13 04:35:17;;;;;;;;;8.00;6.75;;;;;;;;5041789;28;62080;-79
2022/10/13 04:37:42;;;;;;;;;5.25;4.75;;;;;;;;5041920;28;61946;-78
2022/10/13 04:40:08;;;;;;;;;5.50;5.00;;;;;;;;5040916;28;62084;-78
2022/10/13 04:42:33;;;;;;;;;11.50;9.50;;;;;;;;5040928;28;61786;-79
2022/10/13 04:44:58;;;;;;;;;9.75;8.00;;;;;;;;5041586;28;61799;-78
2022/10/13 04:47:23;;;;;;;;;6.25;6.25;;;;;;;;5040414;28;61916;-78
2022/10/13 04:49:49;;;;;;;;;6.00;6.00;;;;;;;;5039940;28;61996;-78
2022/10/13 04:52:14;;;;;;;;;9.00;7.50;;;;;;;;5041134;28;61702;-78
2022/10/13 04:54:41;;;;;;;;;6.25;6.25;;;;;;;;5041350;28;62253;-78
2022/10/13 04:57:06;;;;;;;;;9.50;7.00;;;;;;;;5041885;28;61767;-78
2022/10/13 04:59:32;;;;;;;;;5.50;5.00;;;;;;;;5041701;28;62144;-78
2022/10/13 05:01:57;;;;;;;;;7.75;6.25;;;;;;;;5041043;28;61753;-79
2022/10/13 05:04:22;;;;;;;;;7.50;7.50;;;;;;;;5041427;28;61966;-78
2022/10/13 05:06:47;;;;;;;;;8.00;6.00;;;;;;;;5040490;28;62382;-77
2022/10/13 05:09:14;;;;;;;;;10.00;5.50;;;;;;;;5043090;28;62861;-78
2022/10/13 05:11:39;;;;;;;;;8.00;6.25;;;;;;;;5040515;28;62468;-79
2022/10/13 05:14:05;;;;;;;;;10.00;6.50;;;;;;;;5041696;28;62162;-78
2022/10/13 05:16:30;;;;;;;;;6.00;6.00;;;;;;;;5044799;28;61739;-79
2022/10/13 05:18:55;;;;;;;;;8.75;7.00;;;;;;;;5045175;28;61792;-80
2022/10/13 05:21:25;;;;;;;;;6.75;6.50;;;;;;;;5043024;28;64754;-79
2022/10/13 05:23:54;;;;;;;;;7.25;6.00;;;;;;;;5044933;28;61771;-79
2022/10/13 05:26:21;;;;;;;;;6.00;5.50;;;;;;;;5044387;28;61916;-78
2022/10/13 05:28:46;;;;;;;;;8.00;6.00;;;;;;;;5044906;28;61737;-79
2022/10/13 05:31:16;;;;;;;;;3.25;1.75;;;;;;;;5044171;28;61987;-79
2022/10/13 05:33:42;;;;;;;;;12.00;5.00;;;;;;;;5044258;28;61734;-79
2022/10/13 05:36:09;;;;;;;;;14.75;6.75;;;;;;;;5044677;28;61788;-79
2022/10/13 05:38:34;;;;;;;;;4.25;4.25;;;;;;;;5044405;28;61736;-78
2022/10/13 05:41:07;;;;;;;;;8.25;8.25;;;;;;;;5024920;28;63573;-79
2022/10/13 05:43:33;;;;;;;;;8.00;5.00;;;;;;;;5043847;28;61859;-79
2022/10/13 05:45:59;;;;;;;;;6.25;5.00;;;;;;;;5026193;28;61876;-79
2022/10/13 05:48:24;;;;;;;;;10.00;7.00;;;;;;;;5043649;28;61889;-77
2022/10/13 05:50:49;;;;;;;;;6.75;6.00;;;;;;;;5042906;28;63136;-77
2022/10/13 05:53:15;;;;;;;;;7.25;5.25;;;;;;;;5043163;28;62069;-78
2022/10/13 05:55:41;;;;;;;;;6.25;5.00;;;;;;;;5034855;28;61806;-78
2022/10/13 05:58:07;;;;;;;;;5.75;5.00;;;;;;;;5047664;28;61923;-78
2022/10/13 06:00:34;;;;;;;;;10.00;5.75;;;;;;;;5042478;28;62091;-79
2022/10/13 06:03:13;;;;;;;;;5.25;4.50;;;;;;;;5044362;28;61905;-77
2022/10/13 06:05:39;;;;;;;;;4.25;3.00;;;;;;;;5051466;28;61784;-77
2022/10/13 06:08:05;;;;;;;;;5.75;4.50;;;;;;;;5053327;28;61911;-78
2022/10/13 06:10:30;;;;;;;;;8.25;5.75;;;;;;;;5052460;28;62749;-77
2022/10/13 06:12:56;;;;;;;;;4.00;4.00;;;;;;;;5054282;28;61914;-77
2022/10/13 06:15:21;;;;;;;;;6.25;5.25;;;;;;;;5052719;28;62085;-77
2022/10/13 06:17:46;;;;;;;;;5.50;4.50;;;;;;;;5054028;28;61782;-78
2022/10/13 06:20:12;;;;;;;;;7.25;4.25;;;;;;;;5054693;28;62615;-78
2022/10/13 06:22:37;;;;;;;;;6.25;4.25;;;;;;;;5051613;28;61830;-77
2022/10/13 06:25:03;;;;;;;;;6.75;5.75;;;;;;;;5026907;28;61802;-78
2022/10/13 06:27:29;;;;;;;;;5.00;3.00;;;;;;;;5026098;28;62063;-79
2022/10/13 06:29:54;;;;;;;;;5.00;4.00;;;;;;;;5043180;28;62888;-78
2022/10/13 06:32:20;;;;;;;;;8.25;5.75;;;;;;;;5025878;28;62403;-77
2022/10/13 06:34:45;;;;;;;;;7.75;3.50;;;;;;;;5043714;28;61948;-78
2022/10/13 06:37:10;;;;;;;;;4.75;4.75;;;;;;;;5044130;28;61916;-78
2022/10/13 06:39:35;;;;;;;;;4.00;4.00;;;;;;;;5024959;28;63738;-78
2022/10/13 06:42:01;;;;;;;;;4.50;3.25;;;;;;;;5043483;28;62252;-78
2022/10/13 06:44:26;;;;;;;;;5.00;4.25;;;;;;;;5025608;28;62017;-79
2022/10/13 06:46:51;;;;;;;;;5.00;3.75;;;;;;;;5049234;28;62021;-78
2022/10/13 06:49:16;;;;;;;;;4.00;3.00;;;;;;;;5063921;28;61875;-79
2022/10/13 06:51:42;;;;;;;;;8.00;4.00;;;;;;;;5059935;28;62162;-78
2022/10/13 06:54:07;;;;;;;;;3.00;3.00;;;;;;;;5024710;28;61850;-80
2022/10/13 06:56:32;;;;;;;;;4.50;3.00;;;;;;;;5041661;28;61963;-78
2022/10/13 06:58:57;;;;;;;;;8.75;3.00;;;;;;;;5031979;28;64876;-78
2022/10/13 07:01:23;;;;;;;;;5.00;3.00;;;;;;;;5042205;28;61831;-78
2022/10/13 07:03:48;;;;;;;;;4.00;3.00;;;;;;;;5054864;28;61934;-80
2022/10/13 07:06:14;;;;;;;;;3.75;3.25;;;;;;;;5039364;28;61782;-79
2022/10/13 07:08:39;;;;;;;;;7.25;4.00;;;;;;;;5024270;28;63672;-79
2022/10/13 07:11:05;;;;;;;;;4.50;3.50;;;;;;;;5042471;28;62104;-78
2022/10/13 07:13:30;;;;;;;;;3.25;3.25;;;;;;;;5047986;28;61891;-78
2022/10/13 07:15:56;;;;;;;;;1.75;1.75;;;;;;;;5043046;28;61700;-78
2022/10/13 07:18:21;;;;;;;;;3.75;2.75;;;;;;;;5042197;28;61885;-78
2022/10/13 07:20:46;;;;;;;;;5.00;5.00;;;;;;;;5024967;28;61891;-78
2022/10/13 07:23:11;;;;;;;;;9.00;6.50;;;;;;;;5041534;28;61938;-78
2022/10/13 07:25:37;;;;;;;;;7.50;5.75;;;;;;;;5042446;28;61818;-78
2022/10/13 07:28:02;;;;;;;;;7.75;5.25;;;;;;;;5042013;28;62534;-78
2022/10/13 07:30:27;;;;;;;;;5.25;4.50;;;;;;;;5042827;28;61869;-78
2022/10/13 07:32:52;;;;;;;;;8.75;5.00;;;;;;;;5042637;28;61735;-78
2022/10/13 07:35:18;;;;;;;;;7.25;5.25;;;;;;;;5042724;28;61750;-78
2022/10/13 07:37:44;;;;;;;;;12.00;7.00;;;;;;;;5040263;28;62716;-78
2022/10/13 07:40:09;;;;;;;;;5.50;5.25;;;;;;;;5041483;28;61865;-78
2022/10/13 07:42:34;;;;;;;;;11.75;6.00;;;;;;;;5041906;28;61947;-78
2022/10/13 07:45:00;;;;;;;;;5.25;4.25;;;;;;;;5023457;28;62696;-78
2022/10/13 07:47:25;;;;;;;;;6.75;5.75;;;;;;;;5023720;28;64749;-78
2022/10/13 07:49:50;;;;;;;;;5.25;4.00;;;;;;;;5041790;28;61833;-78
2022/10/13 07:52:16;;;;;;;;;4.25;4.25;;;;;;;;5041680;28;61733;-78
2022/10/13 07:54:41;;;;;;;;;4.00;4.00;;;;;;;;5042396;28;61893;-78
2022/10/13 07:57:07;;;;;;;;;9.25;6.00;;;;;;;;5041168;28;61994;-77
2022/10/13 07:59:33;;;;;;;;;6.00;5.00;;;;;;;;5041975;28;61792;-78
2022/10/13 08:01:59;;;;;;;;;6.25;5.00;;;;;;;;5023961;28;61745;-78
2022/10/13 08:04:27;;;;;;;;;4.25;4.25;;;;;;;;5049355;28;61756;-78
2022/10/13 08:06:53;;;;;;;;;7.50;2.00;;;;;;;;5061558;28;61861;-78
2022/10/13 08:09:18;;;;;;;;;7.50;4.50;;;;;;;;5061949;28;61923;-78
2022/10/13 08:11:43;;;;;;;;;7.25;5.00;;;;;;;;5062313;28;61767;-78
2022/10/13 08:14:09;;;;;;;;;5.00;4.00;;;;;;;;5062332;28;61770;-78
2022/10/13 08:16:37;;;;;;;;;4.00;4.00;;;;;;;;5043555;28;63834;-78
2022/10/13 08:19:02;;;;;;;;;4.75;4.00;;;;;;;;5043611;28;61832;-78
2022/10/13 08:21:28;;;;;;;;;8.25;4.50;;;;;;;;5043642;28;61692;-78
2022/10/13 08:23:53;;;;;;;;;5.00;4.00;;;;;;;;5044021;28;61873;-78
2022/10/13 08:26:21;;;;;;;;;4.50;3.50;;;;;;;;5042635;28;64915;-78
2022/10/13 08:28:46;;;;;;;;;9.75;6.25;;;;;;;;5062145;28;61849;-77
2022/10/13 08:31:11;;;;;;;;;4.25;4.25;;;;;;;;5061859;28;61762;-78
2022/10/13 08:33:37;;;;;;;;;9.00;7.25;;;;;;;;5043622;28;61751;-78
2022/10/13 08:36:02;;;;;;;;;1.50;1.50;;;;;;;;5060984;28;61809;-78
2022/10/13 08:38:27;;;;;;;;;4.25;3.50;;;;;;;;5061571;28;61964;-78
2022/10/13 08:40:52;;;;;;;;;2.75;2.75;;;;;;;;5061791;28;61794;-78
2022/10/13 08:43:19;;;;;;;;;5.00;0.50;;;;;;;;5043486;28;61831;-78
2022/10/13 08:45:47;;;;;;;;;6.00;5.00;;;;;;;;5060917;28;62050;-78
2022/10/13 08:48:20;;;;;;;;;2.75;2.00;;;;;;;;5043929;28;62108;-78
2022/10/13 08:50:48;;;;;;;;;5.75;3.00;;;;;;;;5046929;28;61916;-78
2022/10/13 08:53:13;;;;;;;;;4.00;3.00;;;;;;;;5065119;28;61980;-79
2022/10/13 08:55:42;;;;;;;;;7.75;3.00;;;;;;;;5064187;28;62090;-78
2022/10/13 08:58:19;;;;;;;;;4.25;3.00;;;;;;;;5047206;28;61892;-78
2022/10/13 09:00:45;;;;;;;;;3.00;2.75;;;;;;;;5065386;28;61951;-78
2022/10/13 09:03:20;;;;;;;;;4.25;2.00;;;;;;;;5038536;28;62160;-78
2022/10/13 09:05:57;;;;;;;;;8.00;3.25;;;;;;;;5044429;28;64985;-78
2022/10/13 09:08:24;;;;;;;;;3.00;2.50;;;;;;;;5046843;28;61791;-78
2022/10/13 09:10:50;;;;;;;;;5.75;4.00;;;;;;;;5065109;28;61711;-78
2022/10/13 09:13:16;;;;;;;;;3.00;3.00;;;;;;;;5046991;28;62238;-78
2022/10/13 09:15:42;;;;;;;;;3.50;2.75;;;;;;;;5064057;28;61726;-78
2022/10/13 09:18:09;;;;;;;;;2.25;2.25;;;;;;;;5065309;28;61944;-78
2022/10/13 09:20:34;;;;;;;;;4.00;3.50;;;;;;;;5064439;28;61920;-78
2022/10/13 09:23:02;;;;;;;;;3.00;2.75;;;;;;;;5047006;28;62136;-78
2022/10/13 09:25:27;;;;;;;;;4.00;3.00;;;;;;;;5064141;28;62644;-78
2022/10/13 09:27:54;;;;;;;;;6.50;4.00;;;;;;;;5046621;28;62114;-78
2022/10/13 09:30:37;;;;;;;;;5.00;3.75;;;;;;;;5064996;28;61795;-78
2022/10/13 09:33:12;;;;;;;;;5.00;3.25;;;;;;;;5046457;28;61886;-78
2022/10/13 09:35:37;;;;;;;;;3.00;3.00;;;;;;;;5045544;28;63790;-78
2022/10/13 09:38:09;;;;;;;;;4.50;4.00;;;;;;;;5064680;28;61879;-78
2022/10/13 09:40:34;;;;;;;;;3.75;3.75;;;;;;;;5064459;28;62036;-78
2022/10/13 09:43:00;;;;;;;;;6.75;3.00;;;;;;;;5064646;28;62147;-78
2022/10/13 09:45:26;;;;;;;;;5.50;2.00;;;;;;;;5063625;28;62733;-78
2022/10/13 09:48:18;;;;;;;;;4.50;2.00;;;;;;;;5063995;28;61668;-78
2022/10/13 09:50:47;;;;;;;;;4.25;2.50;;;;;;;;5061109;28;61734;-78
2022/10/13 09:53:16;;;;;;;;;2.00;2.00;;;;;;;;5046119;28;61838;-78
2022/10/13 09:55:45;;;;;;;;;3.75;3.00;;;;;;;;5063202;28;62639;-78
2022/10/13 09:58:16;;;;;;;;;3.00;3.00;;;;;;;;5044755;28;61929;-78
2022/10/13 10:00:42;;;;;;;;;3.25;3.25;;;;;;;;5042600;28;61668;-78
2022/10/13 10:03:21;;;;;;;;;2.50;1.50;;;;;;;;5043392;28;61897;-78
2022/10/13 10:05:54;;;;;;;;;3.25;1.00;;;;;;;;5061664;28;63230;-78
2022/10/13 10:08:35;;;;;;;;;2.00;2.00;;;;;;;;5063811;28;61756;-78
2022/10/13 10:11:02;;;;;;;;;4.50;3.50;;;;;;;;5045797;28;61711;-78
2022/10/13 10:13:27;;;;;;;;;3.75;2.50;;;;;;;;5046063;28;62039;-78
2022/10/13 10:15:55;;;;;;;;;2.50;2.50;;;;;;;;5063053;28;62190;-78
2022/10/13 10:18:39;;;;;;;;;6.00;3.00;;;;;;;;5063292;28;61986;-77
2022/10/13 10:21:11;;;;;;;;;4.00;3.00;;;;;;;;5063882;28;62259;-78
2022/10/13 10:23:36;;;;;;;;;7.25;2.50;;;;;;;;5063646;28;61757;-78
2022/10/13 10:26:05;;;;;;;;;9.00;3.25;;;;;;;;5044771;28;62091;-78
2022/10/13 10:28:33;;;;;;;;;2.00;2.00;;;;;;;;5063794;28;61901;-78
2022/10/13 10:31:01;;;;;;;;;4.00;2.25;;;;;;;;5045520;28;61918;-78
2022/10/13 10:33:45;;;;;;;;;4.75;2.75;;;;;;;;5064239;28;61794;-78
2022/10/13 10:36:17;;;;;;;;;3.75;3.00;;;;;;;;5063342;28;61700;-78
2022/10/13 10:38:47;;;;;;;;;3.00;3.00;;;;;;;;5045425;28;61886;-78
2022/10/13 10:41:24;;;;;;;;;5.75;2.75;;;;;;;;5045407;28;61945;-78
2022/10/13 10:44:08;;;;;;;;;4.50;4.00;;;;;;;;5063679;28;61869;-78
2022/10/13 10:46:35;;;;;;;;;4.75;3.00;;;;;;;;5062599;28;61862;-79
2022/10/13 10:49:12;;;;;;;;;4.50;3.50;;;;;;;;5045146;28;61855;-78
2022/10/13 10:51:38;;;;;;;;;4.75;2.00;;;;;;;;5063348;28;61853;-78
2022/10/13 10:54:22;;;;;;;;;2.00;2.00;;;;;;;;5063807;28;61763;-78
2022/10/13 10:57:11;;;;;;;;;2.00;2.00;;;;;;;;5062715;28;62663;-78
2022/10/13 10:59:45;;;;;;;;;3.00;3.00;;;;;;;;5054935;28;61869;-78
2022/10/13 11:02:24;;;;;;;;;4.25;2.00;;;;;;;;5045035;28;61908;-79
2022/10/13 11:04:52;;;;;;;;;4.00;2.75;;;;;;;;5045250;28;62116;-78
2022/10/13 11:07:23;;;;;;;;;7.75;3.75;;;;;;;;5062125;28;62067;-78
2022/10/13 11:09:51;;;;;;;;;3.75;3.00;;;;;;;;5044953;28;61941;-79
2022/10/13 11:12:21;;;;;;;;;2.00;2.00;;;;;;;;5062743;28;62132;-78
2022/10/13 11:14:46;;;;;;;;;35.00;29.25;;;;;;;;5063134;28;61879;-78
2022/10/13 11:17:16;;;;;;;;;19.00;14.50;;;;;;;;5062268;28;61600;-78
2022/10/13 11:19:42;;;;;;;;;4.00;3.00;;;;;;;;5062368;28;61817;-79
2022/10/13 11:22:17;;;;;;;;;3.00;3.00;;;;;;;;5062810;28;62308;-78
2022/10/13 11:24:44;;;;;;;;;2.00;2.00;;;;;;;;5063005;28;61742;-78
2022/10/13 11:27:15;;;;;;;;;4.25;3.25;;;;;;;;5061568;28;61746;-78
2022/10/13 11:29:53;;;;;;;;;5.75;4.00;;;;;;;;5044441;28;61856;-78
2022/10/13 11:32:25;;;;;;;;;7.75;6.00;;;;;;;;5044617;28;61930;-78
2022/10/13 11:35:13;;;;;;;;;5.00;5.00;;;;;;;;5063227;28;61953;-78
2022/10/13 11:37:39;;;;;;;;;6.75;4.25;;;;;;;;5053759;28;61848;-78
2022/10/13 11:40:13;;;;;;;;;9.75;5.50;;;;;;;;5044587;28;61792;-78
2022/10/13 11:42:47;;;;;;;;;7.75;6.75;;;;;;;;5062814;28;61886;-78
2022/10/13 11:45:15;;;;;;;;;8.50;5.00;;;;;;;;5044568;28;61945;-77
2022/10/13 11:47:56;;;;;;;;;10.75;6.25;;;;;;;;5043402;28;63865;-77
2022/10/13 11:50:21;;;;;;;;;9.00;4.75;;;;;;;;5062326;28;61710;-77
2022/10/13 11:52:46;;;;;;;;;6.50;5.75;;;;;;;;5062331;28;61870;-76
2022/10/13 11:55:17;;;;;;;;;6.50;6.50;;;;;;;;5062759;28;61794;-77
2022/10/13 11:57:42;;;;;;;;;5.25;3.75;;;;;;;;5043451;28;63720;-77
2022/10/13 12:00:15;;;;;;;;;8.25;7.00;;;;;;;;5062104;28;62057;-77
2022/10/13 12:02:48;;;;;;;;;7.25;5.25;;;;;;;;5043782;28;61806;-77
2022/10/13 12:05:27;;;;;;;;;5.50;5.50;;;;;;;;5062201;28;61818;-77
2022/10/13 12:07:54;;;;;;;;;11.25;6.75;;;;;;;;5043378;28;65019;-77
2022/10/13 12:10:23;;;;;;;;;4.25;4.25;;;;;;;;5062278;28;61766;-77
2022/10/13 12:12:48;;;;;;;;;5.25;5.00;;;;;;;;5043797;28;61961;-77
2022/10/13 12:15:30;;;;;;;;;5.75;5.00;;;;;;;;5043837;28;61950;-77
2022/10/13 12:17:56;;;;;;;;;6.00;6.00;;;;;;;;5061514;28;62964;-77
2022/10/13 12:20:23;;;;;;;;;6.50;6.50;;;;;;;;5061862;28;61729;-77
2022/10/13 12:22:49;;;;;;;;;6.75;5.75;;;;;;;;5061937;28;61753;-77
2022/10/13 12:25:15;;;;;;;;;7.50;4.50;;;;;;;;5061714;28;61644;-77
2022/10/13 12:27:46;;;;;;;;;6.25;5.75;;;;;;;;5061068;28;62850;-77
2022/10/13 12:30:22;;;;;;;;;6.50;5.00;;;;;;;;5061781;28;61893;-77
2022/10/13 12:32:49;;;;;;;;;5.25;5.25;;;;;;;;5043942;28;61786;-77
2022/10/13 12:35:25;;;;;;;;;7.00;7.00;;;;;;;;5061947;28;61765;-77
2022/10/13 12:37:51;;;;;;;;;9.00;6.25;;;;;;;;5061218;28;63187;-77
2022/10/13 12:40:17;;;;;;;;;8.25;8.00;;;;;;;;5061604;28;61702;-77
2022/10/13 12:42:43;;;;;;;;;5.25;4.75;;;;;;;;5043095;28;62175;-78
2022/10/13 12:45:16;;;;;;;;;10.25;7.00;;;;;;;;5050505;28;61871;-77
2022/10/13 12:47:44;;;;;;;;;6.25;5.50;;;;;;;;5050752;28;61850;-78
2022/10/13 12:50:31;;;;;;;;;6.00;6.00;;;;;;;;5031780;28;62466;-78
2022/10/13 12:53:11;;;;;;;;;6.25;4.50;;;;;;;;5050534;28;61880;-78
2022/10/13 12:55:57;;;;;;;;;5.00;5.00;;;;;;;;5050709;28;61865;-78
2022/10/13 12:58:25;;;;;;;;;7.75;5.00;;;;;;;;5050617;28;62459;-78
2022/10/13 13:01:02;;;;;;;;;4.00;4.00;;;;;;;;5050414;28;62067;-78
2022/10/13 13:03:28;;;;;;;;;4.50;4.00;;;;;;;;5053344;28;62011;-78
2022/10/13 13:06:07;;;;;;;;;5.25;3.50;;;;;;;;5047989;28;61685;-78
2022/10/13 13:08:32;;;;;;;;;5.00;3.00;;;;;;;;5049729;28;62705;-78
2022/10/13 13:10:59;;;;;;;;;5.75;4.00;;;;;;;;5048293;28;62199;-78
2022/10/13 13:13:26;;;;;;;;;5.00;4.00;;;;;;;;5048393;28;61808;-78
2022/10/13 13:15:52;;;;;;;;;3.00;3.00;;;;;;;;5051169;28;61909;-78
2022/10/13 13:18:23;;;;;;;;;3.00;3.00;;;;;;;;5029756;28;63556;-78
2022/10/13 13:20:49;;;;;;;;;2.00;2.00;;;;;;;;5049613;28;61846;-78
2022/10/13 13:23:17;;;;;;;;;4.00;2.50;;;;;;;;5050650;28;61787;-78
2022/10/13 13:25:43;;;;;;;;;2.00;2.00;;;;;;;;5031532;28;61889;-78
2022/10/13 13:28:12;;;;;;;;;2.25;1.75;;;;;;;;5030526;28;63940;-78
2022/10/13 13:30:37;;;;;;;;;1.75;1.75;;;;;;;;5046470;28;61695;-78
2022/10/13 13:33:03;;;;;;;;;3.50;2.75;;;;;;;;5050084;28;61959;-78
2022/10/13 13:35:28;;;;;;;;;4.75;3.50;;;;;;;;5051231;28;62173;-78
2022/10/13 13:37:53;;;;;;;;;6.25;3.00;;;;;;;;5051426;28;62998;-78
2022/10/13 13:40:20;;;;;;;;;3.00;3.00;;;;;;;;5053791;28;61797;-78
2022/10/13 13:42:46;;;;;;;;;4.25;3.00;;;;;;;;5053602;28;61905;-78
2022/10/13 13:45:12;;;;;;;;;2.75;2.75;;;;;;;;5031444;28;61998;-78
2022/10/13 13:47:37;;;;;;;;;4.50;3.00;;;;;;;;5043769;28;61877;-78
2022/10/13 13:50:02;;;;;;;;;2.00;2.00;;;;;;;;5044051;28;62203;-78
2022/10/13 13:52:27;;;;;;;;;3.00;1.75;;;;;;;;5044004;28;61919;-78
2022/10/13 13:54:54;;;;;;;;;2.50;2.00;;;;;;;;5026263;28;61934;-79
2022/10/13 13:57:20;;;;;;;;;8.00;3.50;;;;;;;;5043457;28;62639;-79
2022/10/13 13:59:45;;;;;;;;;8.25;6.00;;;;;;;;5049575;28;61926;-79
2022/10/13 14:02:13;;;;;;;;;6.00;4.00;;;;;;;;5053896;28;61918;-79
2022/10/13 14:04:39;;;;;;;;;4.00;4.00;;;;;;;;5053712;28;62024;-78
2022/10/13 14:07:04;;;;;;;;;6.75;4.50;;;;;;;;5034840;28;64460;-78
2022/10/13 14:09:29;;;;;;;;;4.75;4.75;;;;;;;;5032942;28;62000;-79
2022/10/13 14:11:55;;;;;;;;;6.00;5.00;;;;;;;;5053290;28;61876;-78
2022/10/13 14:14:20;;;;;;;;;5.00;5.00;;;;;;;;5051675;28;61738;-79
2022/10/13 14:16:45;;;;;;;;;6.25;4.00;;;;;;;;5034110;28;64739;-78
2022/10/13 14:19:11;;;;;;;;;3.25;3.25;;;;;;;;5034636;28;61833;-78
2022/10/13 14:21:36;;;;;;;;;8.50;5.00;;;;;;;;5050579;28;61922;-78
2022/10/13 14:24:02;;;;;;;;;5.00;4.25;;;;;;;;5034185;28;62214;-78
2022/10/13 14:26:28;;;;;;;;;6.00;4.00;;;;;;;;5032873;28;64272;-79
2022/10/13 14:28:53;;;;;;;;;7.50;5.00;;;;;;;;5048338;28;61939;-78
2022/10/13 14:31:18;;;;;;;;;6.50;4.00;;;;;;;;5052390;28;61857;-78
2022/10/13 14:33:44;;;;;;;;;6.25;4.00;;;;;;;;5034704;28;61740;-78
2022/10/13 14:36:11;;;;;;;;;4.00;4.00;;;;;;;;5032182;28;63194;-78
2022/10/13 14:38:36;;;;;;;;;3.50;3.50;;;;;;;;5032429;28;61802;-78
2022/10/13 14:41:03;;;;;;;;;8.25;6.25;;;;;;;;5049128;28;61687;-78
2022/10/13 14:43:29;;;;;;;;;4.50;4.50;;;;;;;;5052874;28;61805;-79